Flight Track Log - Related Links

Times and Time Zones

All times are in EDT time to prevent confusion due to time zone crossing. See the LAK145 flight status page for this flight to view local times or setup timezone preferences in your user account.

Time Position Orientation Groundspeed Altitude Reporting Facility
EDT Latitude Longitude Course Direction KTS MPH feet Rate Location/Type
Sat 10:52:46 AM 44.5894 -92.4989 130° Southeast 115 132 2,000  Level Minneapolis Center
Sat 10:53:47 AM 44.5533 -92.5328 214° Southwest 202 232 4,800 2,585 Climbing Minneapolis Center
Sat 10:54:49 AM 44.5069 -92.4572 131° Southeast 256 295 7,300 2,439 Climbing Minneapolis Center
Sat 10:55:00 AM 44.1794 -91.8610 134° Southeast  Level FlightAware Approximate
Sat 10:55:50 AM 44.4517 -92.3658 130° Southeast 285 328 9,800  Level Minneapolis Center
Sat 10:56:00 AM 44.1092 -91.7606 134° Southeast  Level FlightAware Approximate
Sat 10:56:52 AM 44.3981 -92.2828 132° Southeast 305 351 12,600  Level Minneapolis Center
Sat 10:57:00 AM 44.0397 -91.6595 133° Southeast  Level FlightAware Approximate
Sat 10:57:53 AM 44.3436 -92.1856 128° Southeast 313 360 16,000  Level Minneapolis Center
Sat 10:58:00 AM 43.9693 -91.5599 130° Southeast  Level FlightAware Approximate
Sat 10:58:55 AM 44.2742 -92.0689 130° Southeast 322 371 19,300  Level Minneapolis Center
Sat 10:59:56 AM 44.2072 -91.9553 129° Southeast 356 410 22,400 2,585 Climbing Minneapolis Center
Sat 11:00:58 AM 44.1353 -91.8394 131° Southeast 377 434 24,600 2,000 Climbing Minneapolis Center
Sat 11:01:59 AM 44.0431 -91.7447 144° Southeast 419 482 26,500 1,659 Climbing Minneapolis Center
Sat 11:03:01 AM 43.9406 -91.6681 152° Southeast 422 486 28,000 1,463 Climbing Minneapolis Center
Sat 11:04:02 AM 43.8322 -91.5900 153° Southeast 433 498 29,500 1,463 Climbing Minneapolis Center
Sat 11:05:04 AM 43.7219 -91.5106 152° Southeast 442 509 31,000 1,610 Climbing Minneapolis Center
Sat 11:06:05 AM 43.5914 -91.4167 152° Southeast 442 509 32,800 1,610 Climbing Minneapolis Center
Sat 11:07:07 AM 43.4831 -91.3411 153° Southeast 442 509 34,300 1,463 Climbing Minneapolis Center
Sat 11:08:08 AM 43.3781 -91.2650 152° Southeast 435 501 35,800 1,398 Climbing Minneapolis Center
Sat 11:08:50 AM 43.3156 -91.2258 155° Southeast 424 488 36,700 1,327 Climbing Chicago Center
Sat 11:09:52 AM 43.2147 -91.1522 152° Southeast 416 479 38,100 1,113 Climbing Chicago Center
Sat 11:10:54 AM 43.0956 -91.0708 153° Southeast 400 460 39,000 439 Climbing Chicago Center
Sat 11:11:55 AM 42.9933 -90.9964 152° Southeast 411 473 39,000 146 Level Chicago Center
Sat 11:12:57 AM 42.8886 -90.9253 154° Southeast 416 479 39,300 435 Climbing Chicago Center
Sat 11:13:59 AM 42.7817 -90.8508 153° Southeast 427 491 39,900 576 Climbing Chicago Center
Sat 11:15:54 AM 42.5928 -90.7189 153° Southeast 418 481 41,000 357 Climbing Kansas City Center
Sat 11:17:04 AM 42.4686 -90.6350 154° Southeast 426 490 41,000  Level Chicago Center
Sat 11:18:06 AM 42.3386 -90.5472 153° Southeast 433 498 41,000  Level Chicago Center
Sat 11:19:07 AM 42.2289 -90.4703 153° Southeast 444 511 41,000  Level Chicago Center
Sat 11:20:09 AM 42.1197 -90.3986 154° Southeast 439 505 41,000  Level Chicago Center
Sat 11:21:11 AM 42.0117 -90.3258 153° Southeast 439 505 41,000  Level Chicago Center
Sat 11:22:13 AM 41.9050 -90.2558 154° Southeast 433 498 41,000  Level Chicago Center
Sat 11:23:14 AM 41.7928 -90.1789 153° Southeast 432 497 41,000  Level Chicago Center
Sat 11:24:16 AM 41.6869 -90.1089 154° Southeast 427 491 41,000  Level Chicago Center
Sat 11:25:18 AM 41.5819 -90.0417 154° Southeast 421 484 41,000  Level Chicago Center
Sat 11:26:20 AM 41.4794 -89.9700 152° Southeast 419 482 41,000  Level Chicago Center
Sat 11:27:21 AM 41.3550 -89.8894 154° Southeast 417 480 41,000  Level Chicago Center
Sat 11:28:23 AM 41.2514 -89.8228 154° Southeast 416 479 41,000  Level Chicago Center
Sat 11:29:25 AM 41.1497 -89.7539 153° Southeast 413 475 41,000  Level Chicago Center
Sat 11:30:27 AM 41.0464 -89.6881 154° Southeast 412 474 41,000  Level Chicago Center
Sat 11:31:28 AM 40.9425 -89.6197 154° Southeast 410 472 41,000  Level Chicago Center
Sat 11:32:30 AM 40.8433 -89.5569 154° Southeast 404 465 41,000  Level Chicago Center
Sat 11:33:32 AM 40.7367 -89.4881 154° Southeast 409 471 41,000  Level Chicago Center
Sat 11:34:34 AM 40.6344 -89.4214 154° Southeast 408 470 41,000  Level Chicago Center
Sat 11:35:35 AM 40.5331 -89.3569 154° Southeast 406 467 41,000  Level Chicago Center
Sat 11:36:37 AM 40.4319 -89.2919 154° Southeast 404 465 41,000  Level Chicago Center
Sat 11:37:39 AM 40.3106 -89.2167 155° Southeast 401 461 41,000  Level Chicago Center
Sat 11:38:40 AM 40.2097 -89.1511 154° Southeast 401 461 41,000  Level Chicago Center
Sat 11:39:42 AM 40.1094 -89.0875 154° Southeast 400 460 41,000  Level Chicago Center
Sat 11:40:44 AM 40.0089 -89.0242 154° Southeast 400 460 41,000  Level Chicago Center
Sat 11:41:45 AM 39.9089 -88.9617 154° Southeast 399 459 41,000  Level Chicago Center
Sat 11:42:47 AM 39.8075 -88.9003 155° Southeast 400 460 41,000  Level Chicago Center
Sat 11:43:49 AM 39.7069 -88.8353 154° Southeast 401 461 41,000  Level Chicago Center
Sat 11:44:50 AM 39.6058 -88.7736 155° Southeast 401 461 41,000  Level Chicago Center
Sat 11:45:54 AM 39.4828 -88.6961 154° Southeast 404 465 41,000  Level Indianapolis Center
Sat 11:46:56 AM 39.3808 -88.6336 155° Southeast 404 465 41,000  Level Indianapolis Center
Sat 11:47:57 AM 39.2767 -88.5717 155° Southeast 403 464 41,000  Level Kansas City Center
Sat 11:48:58 AM 39.1744 -88.5086 154° Southeast 404 465 41,000  Level Kansas City Center
Sat 11:49:59 AM 39.0714 -88.4461 155° Southeast 404 465 41,000  Level Kansas City Center
Sat 11:51:03 AM 38.9686 -88.3806 154° Southeast 406 467 41,000  Level Kansas City Center
Sat 11:52:03 AM 38.8636 -88.3192 156° South 408 470 41,000  Level Indianapolis Center
Sat 11:53:05 AM 38.7597 -88.2572 155° Southeast 409 471 41,000  Level Indianapolis Center
Sat 11:54:06 AM 38.6356 -88.1817 155° Southeast 409 471 41,000  Level Indianapolis Center
Sat 11:55:08 AM 38.5314 -88.1219 156° South 409 471 41,000  Level Indianapolis Center
Sat 11:56:09 AM 38.4289 -88.0578 154° Southeast 409 471 41,000  Level Indianapolis Center
Sat 11:57:11 AM 38.3253 -87.9989 156° South 409 471 41,000  Level Indianapolis Center
Sat 11:58:12 AM 38.2228 -87.9358 154° Southeast 409 471 41,000  Level Indianapolis Center
Sat 11:59:13 AM 38.1217 -87.8761 155° Southeast 407 468 41,000  Level Indianapolis Center
Sat 12:00:15 PM 38.0189 -87.8147 155° Southeast 407 468 41,000  Level Indianapolis Center
Sat 12:01:16 PM 37.9161 -87.7542 155° Southeast 407 468 41,000  Level Indianapolis Center
Sat 12:02:18 PM 37.8136 -87.6919 154° Southeast 407 468 41,000  Level Indianapolis Center
Sat 12:03:19 PM 37.7039 -87.6228 153° Southeast 407 468 41,000  Level Indianapolis Center
Sat 12:04:21 PM 37.5997 -87.5611 155° Southeast 407 468 41,000  Level Indianapolis Center
Sat 12:05:22 PM 37.4972 -87.4958 153° Southeast 408 470 41,000  Level Indianapolis Center
Sat 12:06:24 PM 37.3761 -87.4236 155° Southeast 408 470 41,000  Level Indianapolis Center
Sat 12:07:25 PM 37.2719 -87.3617 155° Southeast 408 470 41,000  Level Indianapolis Center
Sat 12:08:27 PM 37.1672 -87.2975 154° Southeast 409 471 41,000  Level Indianapolis Center
Sat 12:09:06 PM 37.0981 -87.2553 154° Southeast 411 473 41,000  Level Memphis Center
Sat 12:10:08 PM 36.9922 -87.1917 154° Southeast 413 475 41,000  Level Memphis Center
Sat 12:11:10 PM 36.8864 -87.1294 155° Southeast 414 476 41,000 -629 Level Memphis Center
Sat 12:12:12 PM 36.7789 -87.0636 154° Southeast 419 482 39,700 -1,344 Descending Memphis Center
Sat 12:13:15 PM 36.6681 -86.9986 155° Southeast 431 496 38,200 -1,536 Descending Memphis Center
Sat 12:14:17 PM 36.5553 -86.9303 154° Southeast 438 504 36,500 -1,548 Descending Memphis Center
Sat 12:15:19 PM 36.4417 -86.8639 155° Southeast 442 509 35,000 -919 Descending Memphis Center
Sat 12:16:21 PM 36.3319 -86.8006 155° Southeast 442 509 34,600 -774 Descending Memphis Center
Sat 12:17:23 PM 36.2094 -86.7278 154° Southeast 442 509 33,400 -774 Descending Memphis Center
Sat 12:18:25 PM 36.1056 -86.6422 146° Southeast 446 513 33,000 -194 Descending Memphis Center
Sat 12:19:27 PM 36.0056 -86.5064 132° Southeast 449 517 33,000  Level Memphis Center
Sat 12:20:29 PM 35.9206 -86.3914 132° Southeast 449 517 33,000 -242 Level Memphis Center
Sat 12:21:31 PM 35.8858 -86.2367 105° East 478 550 32,500 -968 Descending Memphis Center
Sat 12:22:33 PM 35.8817 -86.0642 92° East 496 571 31,000 -1,839 Descending Memphis Center
Sat 12:23:35 PM 35.8214 -85.9189 117° Southeast 484 557 28,700 -2,661 Descending Memphis Center
Sat 12:24:37 PM 35.7206 -85.8244 143° Southeast 433 498 25,500 -3,290 Descending Memphis Center
Sat 12:25:39 PM 35.6367 -85.7481 143° Southeast 390 449 21,900 -3,677 Descending Memphis Center
Sat 12:26:41 PM 35.5589 -85.6742 142° Southeast 364 419 17,900 -3,871 Descending Memphis Center
Sat 12:27:43 PM 35.4819 -85.6075 145° Southeast 345 397 13,900 -3,339 Descending Memphis Center
Sat 12:28:45 PM 35.3989 -85.5308 143° Southeast 320 368 11,000 -2,016 Descending Memphis Center
Sat 12:29:48 PM 35.3361 -85.4747 144° Southeast 287 330 9,700 -1,584 Descending Memphis Center
Sat 12:30:50 PM 35.2736 -85.4058 138° Southeast 299 344 7,700 -1,935 Descending Memphis Center
Sat 12:31:52 PM 35.2275 -85.3444 133° Southeast 254 292 5,700 -1,935 Descending Memphis Center
Sat 12:32:54 PM 35.1831 -85.2883 134° Southeast 239 275 3,700 -1,161 Descending Memphis Center
Sat 12:33:56 PM 35.1514 -85.2239 121° Southeast 205 236 3,300 -484 Descending Memphis Center
Sat 12:34:58 PM 35.1225 -85.1756 126° Southeast 186 214 2,700 -774 Descending Memphis Center
Sat 12:36:00 PM 35.0831 -85.1858 192° South 160 184 1,700 -871 Descending Memphis Center
Sat 12:37:02 PM 35.0533 -85.1978 198° South 133 153 900 -774 Descending Memphis Center
Sat 12:39:00 PM 35.0333 -85.2000 331° Northwest  Level FlightAware Approximate

Login

Don't have an account? Register now (free) for customized features, flight alerts, and more!